Time;durP1;ratioP1;P1;durP2;ratioP2;P2;SDS_P1;SDS_P2;PMS_P1;PMS_P2;Temp;Humidity;BMP_temperature;BMP_pressure;BME280_temperature;BME280_humidity;BME280_pressure;Samples;Min_cycle;Max_cycle;Signal;HPM_P1;HPM_P2
2023/04/13 00:00:54;;;;;;;;;;;;;;;;;;6137503;23;19916;-83
2023/04/13 00:03:20;;;;;;;;;;;;;;;;;;6137720;23;19963;-83
2023/04/13 00:05:47;;;;;;;;;;;;;;;;;;6162341;23;20406;-83
2023/04/13 00:08:13;;;;;;;;;;;;;;;;;;6136268;23;19916;-84
2023/04/13 00:10:40;;;;;;;;;;;;;;;;;;6161592;23;19939;-82
2023/04/13 00:13:06;;;;;;;;;;;;;;;;;;6137331;23;20055;-83
2023/04/13 00:15:33;;;;;;;;;;;;;;;;;;6137914;23;19916;-83
2023/04/13 00:17:59;;;;;;;;;;;;;;;;;;6137522;23;19917;-83
2023/04/13 00:20:25;;;;;;;;;;;;;;;;;;6137228;23;19917;-83
2023/04/13 00:22:51;;;;;;;;;;;;;;;;;;6161718;23;20331;-84
2023/04/13 00:25:17;;;;;;;;;;;;;;;;;;6161810;23;19971;-83
2023/04/13 00:27:43;;;;;;;;;;;;;;;;;;6137717;23;20251;-83
2023/04/13 00:30:10;;;;;;;;;;;;;;;;;;6161854;23;19924;-84
2023/04/13 00:32:36;;;;;;;;;;;;;;;;;;6136886;23;20335;-83
2023/04/13 00:35:02;;;;;;;;;;;;;;;;;;6137324;23;19916;-83
2023/04/13 00:37:31;;;;;;;;;;;;;;;;;;6161648;23;19991;-83
2023/04/13 00:39:58;;;;;;;;;;;;;;;;;;6136526;23;19924;-84
2023/04/13 00:42:24;;;;;;;;;;;;;;;;;;6136361;23;19920;-84
2023/04/13 00:44:50;;;;;;;;;;;;;;;;;;6136590;23;19916;-84
2023/04/13 00:47:16;;;;;;;;;;;;;;;;;;6160361;23;19923;-84
2023/04/13 00:49:42;;;;;;;;;;;;;;;;;;6135579;23;19916;-83
2023/04/13 00:52:10;;;;;;;;;;;;;;;;;;6160472;23;19963;-83
2023/04/13 00:54:37;;;;;;;;;;;;;;;;;;6136133;23;19916;-84
2023/04/13 00:57:09;;;;;;;;;;;;;;;;;;6136342;23;19995;-83
2023/04/13 00:59:35;;;;;;;;;;;;;;;;;;6135828;23;19995;-84
2023/04/13 01:02:04;;;;;;;;;;;;;;;;;;6135925;23;19947;-84
2023/04/13 01:04:30;;;;;;;;;;;;;;;;;;6136145;23;19916;-83
2023/04/13 01:06:56;;;;;;;;;;;;;;;;;;6160608;23;19924;-83
2023/04/13 01:09:21;;;;;;;;;;;;;;;;;;6135475;23;20002;-82
2023/04/13 01:11:48;;;;;;;;;;;;;;;;;;6135978;23;19954;-83
2023/04/13 01:14:14;;;;;;;;;;;;;;;;;;6136198;23;19923;-83
2023/04/13 01:16:39;;;;;;;;;;;;;;;;;;6136093;23;20247;-83
2023/04/13 01:19:06;;;;;;;;;;;;;;;;;;6135646;23;19917;-83
2023/04/13 01:21:32;;;;;;;;;;;;;;;;;;6135181;23;19916;-82
2023/04/13 01:23:57;;;;;;;;;;;;;;;;;;6160250;23;19921;-83
2023/04/13 01:26:24;;;;;;;;;;;;;;;;;;6135764;23;20358;-83
2023/04/13 01:28:50;;;;;;;;;;;;;;;;;;6135238;23;19922;-83
2023/04/13 01:31:16;;;;;;;;;;;;;;;;;;6135080;23;19987;-82
2023/04/13 01:33:42;;;;;;;;;;;;;;;;;;6135759;23;20330;-83
2023/04/13 01:36:08;;;;;;;;;;;;;;;;;;6136058;23;19919;-84
2023/04/13 01:38:34;;;;;;;;;;;;;;;;;;6160703;23;19916;-84
2023/04/13 01:41:01;;;;;;;;;;;;;;;;;;6135782;23;20239;-82
2023/04/13 01:43:27;;;;;;;;;;;;;;;;;;6136046;23;19956;-84
2023/04/13 01:45:53;;;;;;;;;;;;;;;;;;6160225;23;20235;-82
2023/04/13 01:48:31;;;;;;;;;;;;;;;;;;6136031;23;19970;-83
2023/04/13 01:50:57;;;;;;;;;;;;;;;;;;6135385;23;19923;-84
2023/04/13 01:53:23;;;;;;;;;;;;;;;;;;6135104;23;20357;-84
2023/04/13 01:55:49;;;;;;;;;;;;;;;;;;6135636;23;20338;-83
2023/04/13 01:58:15;;;;;;;;;;;;;;;;;;6135036;23;19917;-82
2023/04/13 02:00:41;;;;;;;;;;;;;;;;;;6134903;23;19916;-82
2023/04/13 02:03:08;;;;;;;;;;;;;;;;;;6135121;23;19920;-83
2023/04/13 02:05:35;;;;;;;;;;;;;;;;;;6135243;23;19917;-83
2023/04/13 02:08:02;;;;;;;;;;;;;;;;;;6159753;23;19916;-83
2023/04/13 02:10:28;;;;;;;;;;;;;;;;;;6134593;23;19920;-83
2023/04/13 02:12:54;;;;;;;;;;;;;;;;;;6135058;23;19923;-83
2023/04/13 02:15:20;;;;;;;;;;;;;;;;;;6135188;23;19966;-85
2023/04/13 02:17:46;;;;;;;;;;;;;;;;;;6135033;23;19923;-83
2023/04/13 02:20:12;;;;;;;;;;;;;;;;;;6134568;23;19916;-84
2023/04/13 02:22:38;;;;;;;;;;;;;;;;;;6135011;23;19920;-84
2023/04/13 02:25:04;;;;;;;;;;;;;;;;;;6159606;23;19959;-82
2023/04/13 02:27:30;;;;;;;;;;;;;;;;;;6135174;23;20390;-83
2023/04/13 02:29:56;;;;;;;;;;;;;;;;;;6134726;23;19916;-83
2023/04/13 02:32:23;;;;;;;;;;;;;;;;;;6134773;23;19923;-83
2023/04/13 02:34:49;;;;;;;;;;;;;;;;;;6136251;23;19943;-83
2023/04/13 02:37:15;;;;;;;;;;;;;;;;;;6136883;23;19916;-83
2023/04/13 02:39:41;;;;;;;;;;;;;;;;;;6136353;23;20291;-83
2023/04/13 02:42:08;;;;;;;;;;;;;;;;;;6161749;23;19916;-82
2023/04/13 02:44:34;;;;;;;;;;;;;;;;;;6137028;23;19916;-84
2023/04/13 02:47:00;;;;;;;;;;;;;;;;;;6161448;23;19917;-84
2023/04/13 02:49:26;;;;;;;;;;;;;;;;;;6136155;23;19916;-82
2023/04/13 02:51:52;;;;;;;;;;;;;;;;;;6136980;23;20527;-84
2023/04/13 02:54:18;;;;;;;;;;;;;;;;;;6136727;23;19916;-83
2023/04/13 02:56:44;;;;;;;;;;;;;;;;;;6136707;23;19920;-83
2023/04/13 02:59:10;;;;;;;;;;;;;;;;;;6136542;23;20254;-84
2023/04/13 03:01:36;;;;;;;;;;;;;;;;;;6136301;23;19988;-83
2023/04/13 03:04:02;;;;;;;;;;;;;;;;;;6136687;23;20334;-83
2023/04/13 03:06:28;;;;;;;;;;;;;;;;;;6136698;23;19916;-84
2023/04/13 03:08:54;;;;;;;;;;;;;;;;;;6136734;23;20007;-82
2023/04/13 03:11:20;;;;;;;;;;;;;;;;;;6136145;23;20334;-83
2023/04/13 03:13:46;;;;;;;;;;;;;;;;;;6136739;23;19924;-83
2023/04/13 03:16:12;;;;;;;;;;;;;;;;;;6136464;23;19917;-83
2023/04/13 03:18:38;;;;;;;;;;;;;;;;;;6136656;23;20254;-83
2023/04/13 03:21:07;;;;;;;;;;;;;;;;;;6136048;23;19962;-83
2023/04/13 03:23:34;;;;;;;;;;;;;;;;;;6161063;23;19920;-83
2023/04/13 03:26:00;;;;;;;;;;;;;;;;;;6161067;23;20232;-84
2023/04/13 03:28:26;;;;;;;;;;;;;;;;;;6136375;23;19966;-83
2023/04/13 03:30:52;;;;;;;;;;;;;;;;;;6135921;23;19918;-83
2023/04/13 03:33:17;;;;;;;;;;;;;;;;;;6136189;23;20278;-83
2023/04/13 03:35:43;;;;;;;;;;;;;;;;;;6136541;23;19947;-84
2023/04/13 03:38:10;;;;;;;;;;;;;;;;;;6136679;23;20334;-82
2023/04/13 03:40:36;;;;;;;;;;;;;;;;;;6136195;23;20404;-84
2023/04/13 03:43:02;;;;;;;;;;;;;;;;;;6136408;23;19927;-83
2023/04/13 03:45:28;;;;;;;;;;;;;;;;;;6136293;23;19939;-83
2023/04/13 03:47:54;;;;;;;;;;;;;;;;;;6136522;23;20411;-83
2023/04/13 03:50:19;;;;;;;;;;;;;;;;;;6161036;23;19947;-83
2023/04/13 03:52:45;;;;;;;;;;;;;;;;;;6137010;23;20326;-83
2023/04/13 03:55:12;;;;;;;;;;;;;;;;;;6136422;23;19975;-84
2023/04/13 03:57:38;;;;;;;;;;;;;;;;;;6136531;23;19995;-82
2023/04/13 04:00:06;;;;;;;;;;;;;;;;;;6135908;23;19929;-83
2023/04/13 04:02:33;;;;;;;;;;;;;;;;;;6134950;23;19974;-84
2023/04/13 04:04:59;;;;;;;;;;;;;;;;;;6135985;23;19920;-81
2023/04/13 04:07:24;;;;;;;;;;;;;;;;;;6135762;23;19981;-83
2023/04/13 04:09:50;;;;;;;;;;;;;;;;;;6135144;23;19970;-84
2023/04/13 04:12:16;;;;;;;;;;;;;;;;;;6135712;23;20405;-84
2023/04/13 04:14:42;;;;;;;;;;;;;;;;;;6135522;23;19916;-84
2023/04/13 04:17:08;;;;;;;;;;;;;;;;;;6160140;23;20124;-84
2023/04/13 04:19:34;;;;;;;;;;;;;;;;;;6134920;23;19923;-84
2023/04/13 04:22:02;;;;;;;;;;;;;;;;;;6136271;23;19952;-84
2023/04/13 04:24:29;;;;;;;;;;;;;;;;;;6136092;23;20290;-84
2023/04/13 04:26:56;;;;;;;;;;;;;;;;;;6135754;23;19923;-84
2023/04/13 04:29:28;;;;;;;;;;;;;;;;;;6134987;23;19962;-83
2023/04/13 04:31:54;;;;;;;;;;;;;;;;;;6135735;23;19959;-83
2023/04/13 04:34:20;;;;;;;;;;;;;;;;;;6160364;23;19917;-84
2023/04/13 04:36:49;;;;;;;;;;;;;;;;;;6135612;23;19923;-84
2023/04/13 04:39:20;;;;;;;;;;;;;;;;;;6135396;23;19917;-84
2023/04/13 04:41:46;;;;;;;;;;;;;;;;;;6135666;23;20349;-83
2023/04/13 04:44:15;;;;;;;;;;;;;;;;;;6159882;23;19920;-83
2023/04/13 04:46:42;;;;;;;;;;;;;;;;;;6135659;23;19916;-83
2023/04/13 04:49:08;;;;;;;;;;;;;;;;;;6135242;23;19916;-82
2023/04/13 04:51:34;;;;;;;;;;;;;;;;;;6135046;23;19916;-84
2023/04/13 04:54:02;;;;;;;;;;;;;;;;;;6134887;23;20495;-84
2023/04/13 04:56:28;;;;;;;;;;;;;;;;;;6134740;23;19920;-84
2023/04/13 04:58:54;;;;;;;;;;;;;;;;;;6135417;23;20016;-83
2023/04/13 05:01:25;;;;;;;;;;;;;;;;;;6134912;23;20258;-84
2023/04/13 05:03:51;;;;;;;;;;;;;;;;;;6135186;23;19978;-83
2023/04/13 05:06:17;;;;;;;;;;;;;;;;;;6159794;23;19954;-83
2023/04/13 05:08:43;;;;;;;;;;;;;;;;;;6134501;23;19920;-83
2023/04/13 05:11:09;;;;;;;;;;;;;;;;;;6159643;23;19929;-84
2023/04/13 05:13:38;;;;;;;;;;;;;;;;;;6134984;23;19916;-84
2023/04/13 05:16:04;;;;;;;;;;;;;;;;;;6135312;23;19917;-84
2023/04/13 05:18:31;;;;;;;;;;;;;;;;;;6135018;23;19967;-84
2023/04/13 05:20:57;;;;;;;;;;;;;;;;;;6134779;23;19916;-84
2023/04/13 05:23:23;;;;;;;;;;;;;;;;;;6134961;23;19920;-85
2023/04/13 05:25:49;;;;;;;;;;;;;;;;;;6135343;23;19991;-84
2023/04/13 05:28:15;;;;;;;;;;;;;;;;;;6135170;23;19917;-84
2023/04/13 05:30:41;;;;;;;;;;;;;;;;;;6134665;23;19995;-84
2023/04/13 05:33:08;;;;;;;;;;;;;;;;;;6134826;23;19922;-84
2023/04/13 05:35:36;;;;;;;;;;;;;;;;;;6134812;23;19916;-84
2023/04/13 05:38:03;;;;;;;;;;;;;;;;;;6135036;23;19975;-84
2023/04/13 05:40:29;;;;;;;;;;;;;;;;;;6134703;23;19920;-84
2023/04/13 05:42:55;;;;;;;;;;;;;;;;;;6134992;23;19920;-84
2023/04/13 05:45:21;;;;;;;;;;;;;;;;;;6135108;23;19956;-84
2023/04/13 05:47:47;;;;;;;;;;;;;;;;;;6159581;23;19916;-83
2023/04/13 05:50:13;;;;;;;;;;;;;;;;;;6134847;23;19951;-83
2023/04/13 05:52:39;;;;;;;;;;;;;;;;;;6159505;23;20256;-84
2023/04/13 05:55:05;;;;;;;;;;;;;;;;;;6159168;23;19916;-83
2023/04/13 05:57:31;;;;;;;;;;;;;;;;;;6135037;23;19920;-85
2023/04/13 05:59:57;;;;;;;;;;;;;;;;;;6134618;23;20251;-83
2023/04/13 06:02:25;;;;;;;;;;;;;;;;;;6134455;23;19932;-83
2023/04/13 06:04:53;;;;;;;;;;;;;;;;;;6134605;23;19920;-85
2023/04/13 06:07:19;;;;;;;;;;;;;;;;;;6134395;23;19927;-85
2023/04/13 06:15:52;;;;;;;;;;;;;;;;;;6195982;23;19915;-84
2023/04/13 06:18:18;;;;;;;;;;;;;;;;;;6134292;23;20357;-84
2023/04/13 06:20:44;;;;;;;;;;;;;;;;;;6133923;23;19995;-85
2023/04/13 06:23:10;;;;;;;;;;;;;;;;;;6134100;23;19960;-84
2023/04/13 06:25:37;;;;;;;;;;;;;;;;;;6134477;23;19939;-84
2023/04/13 06:28:03;;;;;;;;;;;;;;;;;;6134477;23;19916;-85
2023/04/13 06:30:29;;;;;;;;;;;;;;;;;;6134097;23;19927;-83
2023/04/13 06:32:55;;;;;;;;;;;;;;;;;;6134356;23;19990;-84
2023/04/13 06:35:22;;;;;;;;;;;;;;;;;;6134195;23;19916;-84
2023/04/13 06:37:47;;;;;;;;;;;;;;;;;;6134033;23;19917;-84
2023/04/13 06:40:14;;;;;;;;;;;;;;;;;;6133996;23;19916;-85
2023/04/13 06:42:40;;;;;;;;;;;;;;;;;;6158933;23;20294;-85
2023/04/13 06:45:06;;;;;;;;;;;;;;;;;;6158356;23;19916;-83
2023/04/13 06:47:32;;;;;;;;;;;;;;;;;;6133618;23;20735;-83
2023/04/13 06:49:58;;;;;;;;;;;;;;;;;;6158154;23;19923;-85
2023/04/13 06:52:24;;;;;;;;;;;;;;;;;;6159190;23;19948;-83
2023/04/13 06:54:50;;;;;;;;;;;;;;;;;;6134070;23;19987;-82
2023/04/13 06:57:17;;;;;;;;;;;;;;;;;;6134166;23;19922;-83
2023/04/13 06:59:48;;;;;;;;;;;;;;;;;;6134360;23;19923;-85
2023/04/13 07:02:14;;;;;;;;;;;;;;;;;;6133855;23;19916;-83
2023/04/13 07:04:40;;;;;;;;;;;;;;;;;;6134197;23;19955;-85
2023/04/13 07:07:06;;;;;;;;;;;;;;;;;;6134086;23;19921;-84
2023/04/13 07:09:32;;;;;;;;;;;;;;;;;;6134297;23;19916;-84
2023/04/13 07:11:58;;;;;;;;;;;;;;;;;;6134659;23;19916;-84
2023/04/13 07:14:24;;;;;;;;;;;;;;;;;;6134496;23;20250;-84
2023/04/13 07:16:50;;;;;;;;;;;;;;;;;;6133961;23;20005;-84
2023/04/13 07:19:19;;;;;;;;;;;;;;;;;;6134115;23;20306;-84
2023/04/13 07:21:45;;;;;;;;;;;;;;;;;;6136551;23;19921;-85
2023/04/13 07:24:11;;;;;;;;;;;;;;;;;;6136379;23;20254;-86
2023/04/13 07:26:37;;;;;;;;;;;;;;;;;;6136677;23;19916;-85
2023/04/13 07:29:02;;;;;;;;;;;;;;;;;;6136842;23;19991;-85
2023/04/13 07:31:28;;;;;;;;;;;;;;;;;;6136327;23;19922;-84
2023/04/13 07:33:54;;;;;;;;;;;;;;;;;;6136732;23;19991;-85
2023/04/13 07:36:22;;;;;;;;;;;;;;;;;;6136255;23;20530;-86
2023/04/13 07:38:47;;;;;;;;;;;;;;;;;;6160507;23;19977;-87
2023/04/13 07:41:14;;;;;;;;;;;;;;;;;;6160822;23;19991;-84
2023/04/13 07:43:40;;;;;;;;;;;;;;;;;;6136006;23;19920;-83
2023/04/13 07:46:06;;;;;;;;;;;;;;;;;;6135730;23;19920;-85
2023/04/13 07:48:32;;;;;;;;;;;;;;;;;;6160330;23;19916;-84
2023/04/13 07:50:58;;;;;;;;;;;;;;;;;;6136258;23;19916;-84
2023/04/13 07:53:23;;;;;;;;;;;;;;;;;;6136171;23;19987;-85
2023/04/13 07:55:50;;;;;;;;;;;;;;;;;;6136292;23;19991;-85
2023/04/13 07:58:15;;;;;;;;;;;;;;;;;;6135220;23;20327;-84
2023/04/13 08:00:41;;;;;;;;;;;;;;;;;;6135614;23;19920;-85
2023/04/13 08:05:52;;;;;;;;;;;;;;;;;;6160270;23;19923;-86
2023/04/13 08:08:21;;;;;;;;;;;;;;;;;;6135846;23;19916;-87
2023/04/13 08:10:46;;;;;;;;;;;;;;;;;;6136693;23;19923;-87
2023/04/13 08:13:12;;;;;;;;;;;;;;;;;;6160669;23;19920;-85
2023/04/13 08:15:38;;;;;;;;;;;;;;;;;;6136348;23;20383;-84
2023/04/13 08:18:05;;;;;;;;;;;;;;;;;;6160299;23;19987;-83
2023/04/13 08:20:32;;;;;;;;;;;;;;;;;;6133229;23;20010;-84
2023/04/13 08:22:58;;;;;;;;;;;;;;;;;;6159099;23;19920;-84
2023/04/13 08:25:25;;;;;;;;;;;;;;;;;;6135065;23;20378;-84
2023/04/13 08:27:52;;;;;;;;;;;;;;;;;;6135221;23;19939;-81
2023/04/13 08:30:18;;;;;;;;;;;;;;;;;;6134527;23;19994;-83
2023/04/13 08:32:45;;;;;;;;;;;;;;;;;;6134463;23;19923;-82
2023/04/13 08:35:13;;;;;;;;;;;;;;;;;;6159581;23;19917;-84
2023/04/13 08:37:39;;;;;;;;;;;;;;;;;;6159147;23;19974;-84
2023/04/13 08:40:06;;;;;;;;;;;;;;;;;;6159167;23;19991;-84
2023/04/13 08:42:32;;;;;;;;;;;;;;;;;;6134804;23;19927;-84
2023/04/13 08:44:58;;;;;;;;;;;;;;;;;;6134612;23;20327;-83
2023/04/13 08:47:24;;;;;;;;;;;;;;;;;;6159598;23;19923;-84
2023/04/13 08:49:50;;;;;;;;;;;;;;;;;;6158872;23;19917;-82
2023/04/13 08:52:16;;;;;;;;;;;;;;;;;;6133938;23;19923;-84
2023/04/13 08:54:43;;;;;;;;;;;;;;;;;;6134274;23;19916;-85
2023/04/13 08:57:09;;;;;;;;;;;;;;;;;;6134420;23;19916;-83
2023/04/13 08:59:36;;;;;;;;;;;;;;;;;;6133773;23;19952;-83
2023/04/13 09:02:05;;;;;;;;;;;;;;;;;;6134358;23;19917;-82
2023/04/13 09:04:31;;;;;;;;;;;;;;;;;;6158588;23;19920;-83
2023/04/13 09:06:57;;;;;;;;;;;;;;;;;;6159323;23;19923;-83
2023/04/13 09:09:23;;;;;;;;;;;;;;;;;;6133990;23;20338;-83
2023/04/13 09:11:50;;;;;;;;;;;;;;;;;;6158941;23;20404;-87
2023/04/13 09:14:19;;;;;;;;;;;;;;;;;;6134134;23;19916;-87
2023/04/13 09:16:45;;;;;;;;;;;;;;;;;;6135419;23;19917;-89
2023/04/13 09:19:12;;;;;;;;;;;;;;;;;;6134993;23;19916;-86
2023/04/13 09:21:38;;;;;;;;;;;;;;;;;;6134049;23;19987;-84
2023/04/13 09:24:04;;;;;;;;;;;;;;;;;;6133603;23;20331;-85
2023/04/13 09:26:31;;;;;;;;;;;;;;;;;;6157461;23;19920;-84
2023/04/13 09:28:57;;;;;;;;;;;;;;;;;;6134123;23;19978;-87
2023/04/13 09:31:23;;;;;;;;;;;;;;;;;;6159073;23;19920;-84
2023/04/13 09:33:49;;;;;;;;;;;;;;;;;;6134268;23;19920;-85
2023/04/13 09:36:15;;;;;;;;;;;;;;;;;;6134225;23;20335;-84
2023/04/13 09:38:41;;;;;;;;;;;;;;;;;;6134416;23;19967;-89
2023/04/13 09:41:07;;;;;;;;;;;;;;;;;;6134570;23;19917;-85
2023/04/13 09:43:33;;;;;;;;;;;;;;;;;;6135068;23;20353;-84
2023/04/13 09:45:59;;;;;;;;;;;;;;;;;;6135597;23;19956;-84
2023/04/13 09:48:25;;;;;;;;;;;;;;;;;;6135258;23;19927;-84
2023/04/13 09:50:51;;;;;;;;;;;;;;;;;;6135056;23;20255;-88
2023/04/13 09:53:17;;;;;;;;;;;;;;;;;;6134955;23;19916;-84
2023/04/13 09:55:46;;;;;;;;;;;;;;;;;;6132587;23;19920;-87
2023/04/13 09:58:19;;;;;;;;;;;;;;;;;;6159996;23;19927;-84
2023/04/13 10:00:45;;;;;;;;;;;;;;;;;;6159822;23;20244;-85
2023/04/13 10:03:11;;;;;;;;;;;;;;;;;;6135388;23;19947;-85
2023/04/13 10:05:41;;;;;;;;;;;;;;;;;;6159333;23;19920;-87
2023/04/13 10:08:07;;;;;;;;;;;;;;;;;;6135017;23;19916;-85
2023/04/13 10:10:33;;;;;;;;;;;;;;;;;;6158893;23;20338;-86
2023/04/13 10:12:59;;;;;;;;;;;;;;;;;;6134503;23;19962;-85
2023/04/13 10:15:26;;;;;;;;;;;;;;;;;;6158496;23;19991;-86
2023/04/13 10:17:54;;;;;;;;;;;;;;;;;;6134579;23;19983;-87
2023/04/13 10:20:21;;;;;;;;;;;;;;;;;;6159395;23;19924;-86
2023/04/13 10:22:47;;;;;;;;;;;;;;;;;;6135234;23;20287;-87
2023/04/13 10:25:14;;;;;;;;;;;;;;;;;;6135275;23;20043;-85
2023/04/13 10:27:40;;;;;;;;;;;;;;;;;;6134694;23;20265;-85
2023/04/13 10:30:08;;;;;;;;;;;;;;;;;;6134973;23;20255;-87
2023/04/13 10:32:34;;;;;;;;;;;;;;;;;;6134836;23;19991;-85
2023/04/13 10:35:00;;;;;;;;;;;;;;;;;;6134364;23;19956;-85
2023/04/13 10:37:27;;;;;;;;;;;;;;;;;;6133843;23;20259;-85
2023/04/13 10:39:53;;;;;;;;;;;;;;;;;;6133950;23;19916;-86
2023/04/13 10:42:24;;;;;;;;;;;;;;;;;;6134772;23;19920;-85
2023/04/13 10:44:49;;;;;;;;;;;;;;;;;;6134218;23;19927;-85
2023/04/13 10:47:15;;;;;;;;;;;;;;;;;;6159082;23;19916;-85
2023/04/13 10:49:41;;;;;;;;;;;;;;;;;;6134119;23;20240;-86
2023/04/13 10:52:07;;;;;;;;;;;;;;;;;;6134213;23;19931;-86
2023/04/13 10:54:33;;;;;;;;;;;;;;;;;;6134142;23;19923;-86
2023/04/13 10:57:01;;;;;;;;;;;;;;;;;;6136169;23;20318;-85
2023/04/13 10:59:27;;;;;;;;;;;;;;;;;;6160851;23;20251;-85
2023/04/13 11:01:53;;;;;;;;;;;;;;;;;;6136733;23;19916;-85
2023/04/13 11:04:19;;;;;;;;;;;;;;;;;;6161200;23;19931;-85
2023/04/13 11:06:45;;;;;;;;;;;;;;;;;;6160659;23;19991;-85
2023/04/13 11:09:11;;;;;;;;;;;;;;;;;;6135486;23;19922;-86
2023/04/13 11:11:39;;;;;;;;;;;;;;;;;;6135964;23;20369;-84
2023/04/13 11:14:05;;;;;;;;;;;;;;;;;;6136450;23;19943;-86
2023/04/13 11:16:31;;;;;;;;;;;;;;;;;;6136223;23;19924;-86
2023/04/13 11:18:57;;;;;;;;;;;;;;;;;;6166368;23;19963;-94
2023/04/13 11:21:24;;;;;;;;;;;;;;;;;;6149828;23;19916;-93
2023/04/13 11:23:50;;;;;;;;;;;;;;;;;;6173325;23;19943;-93
2023/04/13 11:26:16;;;;;;;;;;;;;;;;;;6167494;23;19920;-86
2023/04/13 11:28:42;;;;;;;;;;;;;;;;;;6135966;23;20042;-86
2023/04/13 11:31:10;;;;;;;;;;;;;;;;;;6136252;23;19916;-87
2023/04/13 11:33:35;;;;;;;;;;;;;;;;;;6136269;23;19920;-87
2023/04/13 11:36:02;;;;;;;;;;;;;;;;;;6137004;23;20235;-87
2023/04/13 11:38:28;;;;;;;;;;;;;;;;;;6136696;23;20235;-85
2023/04/13 11:40:54;;;;;;;;;;;;;;;;;;6161675;23;19954;-85
2023/04/13 11:43:20;;;;;;;;;;;;;;;;;;6135876;23;20064;-84
2023/04/13 11:45:46;;;;;;;;;;;;;;;;;;6136149;23;19916;-85
2023/04/13 11:48:13;;;;;;;;;;;;;;;;;;6135874;23;20224;-85
2023/04/13 11:50:38;;;;;;;;;;;;;;;;;;6136140;23;19923;-86
2023/04/13 11:53:04;;;;;;;;;;;;;;;;;;6136347;23;19920;-86
2023/04/13 11:55:32;;;;;;;;;;;;;;;;;;6160238;23;19959;-85
2023/04/13 11:57:58;;;;;;;;;;;;;;;;;;6136204;23;20334;-85
2023/04/13 12:00:24;;;;;;;;;;;;;;;;;;6136421;23;19923;-86
2023/04/13 12:02:50;;;;;;;;;;;;;;;;;;6135993;23;19920;-85
2023/04/13 12:05:17;;;;;;;;;;;;;;;;;;6161271;23;19916;-85
2023/04/13 12:07:43;;;;;;;;;;;;;;;;;;6136314;23;19918;-86
2023/04/13 12:10:09;;;;;;;;;;;;;;;;;;6136555;23;19951;-86
2023/04/13 12:12:36;;;;;;;;;;;;;;;;;;6136597;23;19966;-85
2023/04/13 12:15:03;;;;;;;;;;;;;;;;;;6136593;23;19916;-87
2023/04/13 12:17:30;;;;;;;;;;;;;;;;;;6135895;23;19920;-86
2023/04/13 12:19:56;;;;;;;;;;;;;;;;;;6135952;23;19917;-85
2023/04/13 12:22:22;;;;;;;;;;;;;;;;;;6135931;23;19998;-85
2023/04/13 12:24:48;;;;;;;;;;;;;;;;;;6136386;23;19920;-85
2023/04/13 12:27:16;;;;;;;;;;;;;;;;;;6136178;23;19939;-87
2023/04/13 12:29:42;;;;;;;;;;;;;;;;;;6135296;23;19916;-92
2023/04/13 12:32:10;;;;;;;;;;;;;;;;;;6136357;23;19987;-88
2023/04/13 12:34:36;;;;;;;;;;;;;;;;;;6159758;23;19993;-93
2023/04/13 12:37:02;;;;;;;;;;;;;;;;;;6135106;23;19920;-89
2023/04/13 12:39:28;;;;;;;;;;;;;;;;;;6134962;23;19922;-85
2023/04/13 12:41:54;;;;;;;;;;;;;;;;;;6136129;23;20327;-86
2023/04/13 12:44:21;;;;;;;;;;;;;;;;;;6134920;23;22866;-91
2023/04/13 12:46:56;;;;;;;;;;;;;;;;;;6137478;23;19916;-86
2023/04/13 12:49:25;;;;;;;;;;;;;;;;;;6136255;23;19951;-88
2023/04/13 12:51:51;;;;;;;;;;;;;;;;;;6135588;23;19924;-87
2023/04/13 12:54:17;;;;;;;;;;;;;;;;;;6135617;23;19916;-87
2023/04/13 12:56:44;;;;;;;;;;;;;;;;;;6135638;23;19916;-84
2023/04/13 12:59:10;;;;;;;;;;;;;;;;;;6160103;23;19916;-84
2023/04/13 13:01:36;;;;;;;;;;;;;;;;;;6135671;23;19920;-85
2023/04/13 13:04:02;;;;;;;;;;;;;;;;;;6135616;23;19927;-86
2023/04/13 13:06:28;;;;;;;;;;;;;;;;;;6135745;23;19966;-85
2023/04/13 13:08:55;;;;;;;;;;;;;;;;;;6160347;23;20335;-86
2023/04/13 13:11:21;;;;;;;;;;;;;;;;;;6136502;23;19924;-86
2023/04/13 13:13:47;;;;;;;;;;;;;;;;;;6135963;23;19956;-85
2023/04/13 13:16:13;;;;;;;;;;;;;;;;;;6159662;23;19967;-86
2023/04/13 13:18:39;;;;;;;;;;;;;;;;;;6134537;23;19967;-86
2023/04/13 13:21:05;;;;;;;;;;;;;;;;;;6134836;23;19963;-85
2023/04/13 13:23:31;;;;;;;;;;;;;;;;;;6159719;23;19925;-85
2023/04/13 13:25:57;;;;;;;;;;;;;;;;;;6134664;23;19917;-85
2023/04/13 13:28:22;;;;;;;;;;;;;;;;;;6135223;23;19926;-85
2023/04/13 13:30:48;;;;;;;;;;;;;;;;;;6135455;23;19947;-85
2023/04/13 13:33:14;;;;;;;;;;;;;;;;;;6136332;23;19948;-86
2023/04/13 13:35:40;;;;;;;;;;;;;;;;;;6135659;23;20346;-85
2023/04/13 13:38:06;;;;;;;;;;;;;;;;;;6136372;23;19996;-84
2023/04/13 13:40:32;;;;;;;;;;;;;;;;;;6135262;23;19927;-86
2023/04/13 13:42:58;;;;;;;;;;;;;;;;;;6135087;23;20327;-85
2023/04/13 13:45:24;;;;;;;;;;;;;;;;;;6134883;23;19916;-85
2023/04/13 13:47:51;;;;;;;;;;;;;;;;;;6135093;23;19920;-86
2023/04/13 13:50:17;;;;;;;;;;;;;;;;;;6134993;23;19991;-86
2023/04/13 13:52:42;;;;;;;;;;;;;;;;;;6159334;23;19916;-87
2023/04/13 13:55:08;;;;;;;;;;;;;;;;;;6135002;23;20369;-87
2023/04/13 13:57:34;;;;;;;;;;;;;;;;;;6135769;23;19966;-85
2023/04/13 14:00:12;;;;;;;;;;;;;;;;;;6135337;23;19920;-86
2023/04/13 14:02:38;;;;;;;;;;;;;;;;;;6135813;23;19978;-86
2023/04/13 14:05:04;;;;;;;;;;;;;;;;;;6136547;23;20335;-85
2023/04/13 14:07:30;;;;;;;;;;;;;;;;;;6135898;23;19924;-86
2023/04/13 14:09:56;;;;;;;;;;;;;;;;;;6134738;23;19976;-85
2023/04/13 14:12:22;;;;;;;;;;;;;;;;;;6135771;23;19920;-86
2023/04/13 14:14:48;;;;;;;;;;;;;;;;;;6135738;23;19923;-89
2023/04/13 14:17:14;;;;;;;;;;;;;;;;;;6159465;23;20250;-85
2023/04/13 14:19:41;;;;;;;;;;;;;;;;;;6135571;23;19995;-88
2023/04/13 14:22:07;;;;;;;;;;;;;;;;;;6159532;23;19916;-88
2023/04/13 14:24:33;;;;;;;;;;;;;;;;;;6134771;23;19970;-88
2023/04/13 14:26:59;;;;;;;;;;;;;;;;;;6134857;23;20030;-84
2023/04/13 14:29:25;;;;;;;;;;;;;;;;;;6135123;23;19916;-86
2023/04/13 14:31:51;;;;;;;;;;;;;;;;;;6137578;23;20326;-87
2023/04/13 14:34:18;;;;;;;;;;;;;;;;;;6137381;23;19948;-85
2023/04/13 14:36:44;;;;;;;;;;;;;;;;;;6137108;23;19944;-85
2023/04/13 14:39:11;;;;;;;;;;;;;;;;;;6148846;23;19927;-93
2023/04/13 14:41:37;;;;;;;;;;;;;;;;;;6148985;23;19924;-91
2023/04/13 14:44:03;;;;;;;;;;;;;;;;;;6146962;23;19920;-95
2023/04/13 14:46:31;;;;;;;;;;;;;;;;;;6167536;23;20327;-91
2023/04/13 14:48:57;;;;;;;;;;;;;;;;;;6137771;23;19962;-87
2023/04/13 14:51:23;;;;;;;;;;;;;;;;;;6137578;23;19916;-85
2023/04/13 14:53:49;;;;;;;;;;;;;;;;;;6137150;23;19917;-88
2023/04/13 14:56:15;;;;;;;;;;;;;;;;;;6136398;23;19991;-86
2023/04/13 14:58:41;;;;;;;;;;;;;;;;;;6136447;23;19955;-86
2023/04/13 15:01:07;;;;;;;;;;;;;;;;;;6137701;23;19924;-87
2023/04/13 15:03:33;;;;;;;;;;;;;;;;;;6136481;23;20298;-86
2023/04/13 15:05:59;;;;;;;;;;;;;;;;;;6136781;23;19916;-86
2023/04/13 15:08:25;;;;;;;;;;;;;;;;;;6160871;23;19991;-86
2023/04/13 15:10:51;;;;;;;;;;;;;;;;;;6136550;23;19923;-85
2023/04/13 15:13:19;;;;;;;;;;;;;;;;;;6137061;23;19916;-88
2023/04/13 15:15:46;;;;;;;;;;;;;;;;;;6161616;23;19991;-86
2023/04/13 15:18:15;;;;;;;;;;;;;;;;;;6136709;23;19923;-87
2023/04/13 15:20:41;;;;;;;;;;;;;;;;;;6137049;23;19920;-86
2023/04/13 15:23:08;;;;;;;;;;;;;;;;;;6137650;23;19971;-89
2023/04/13 15:25:34;;;;;;;;;;;;;;;;;;6136456;23;19916;-85
2023/04/13 15:28:00;;;;;;;;;;;;;;;;;;6136665;23;20002;-89
2023/04/13 15:30:26;;;;;;;;;;;;;;;;;;6136637;23;20246;-86
2023/04/13 15:32:52;;;;;;;;;;;;;;;;;;6136319;23;19916;-85
2023/04/13 15:35:18;;;;;;;;;;;;;;;;;;6137001;23;19919;-87
2023/04/13 15:37:44;;;;;;;;;;;;;;;;;;6136679;23;19939;-87
2023/04/13 15:40:13;;;;;;;;;;;;;;;;;;6136559;23;19920;-86
2023/04/13 15:42:38;;;;;;;;;;;;;;;;;;6136562;23;19916;-87
2023/04/13 15:45:05;;;;;;;;;;;;;;;;;;6161933;23;20353;-86
2023/04/13 15:47:31;;;;;;;;;;;;;;;;;;6135989;23;19996;-86
2023/04/13 15:49:58;;;;;;;;;;;;;;;;;;6160539;23;20000;-85
2023/04/13 15:52:24;;;;;;;;;;;;;;;;;;6135993;23;19916;-85
2023/04/13 15:54:50;;;;;;;;;;;;;;;;;;6135270;23;19979;-84
2023/04/13 15:57:16;;;;;;;;;;;;;;;;;;6133266;23;19916;-84
2023/04/13 15:59:42;;;;;;;;;;;;;;;;;;6133375;23;19924;-84
2023/04/13 16:02:08;;;;;;;;;;;;;;;;;;6133456;23;19916;-83
2023/04/13 16:04:34;;;;;;;;;;;;;;;;;;6132994;23;19920;-85
2023/04/13 16:07:00;;;;;;;;;;;;;;;;;;6133750;23;20294;-84
2023/04/13 16:09:29;;;;;;;;;;;;;;;;;;6135139;23;19973;-83
2023/04/13 16:11:55;;;;;;;;;;;;;;;;;;6134704;23;19916;-83
2023/04/13 16:14:21;;;;;;;;;;;;;;;;;;6159881;23;20335;-84
2023/04/13 16:16:52;;;;;;;;;;;;;;;;;;6135261;23;19916;-84
2023/04/13 16:19:18;;;;;;;;;;;;;;;;;;6159848;23;20330;-84
2023/04/13 16:21:44;;;;;;;;;;;;;;;;;;6134614;23;20002;-84
2023/04/13 16:24:11;;;;;;;;;;;;;;;;;;6135031;23;19920;-84
2023/04/13 16:26:37;;;;;;;;;;;;;;;;;;6159873;23;20298;-83
2023/04/13 16:29:03;;;;;;;;;;;;;;;;;;6135197;23;19916;-87
2023/04/13 16:31:29;;;;;;;;;;;;;;;;;;6134847;23;19920;-85
2023/04/13 16:33:55;;;;;;;;;;;;;;;;;;6135195;23;19974;-83
2023/04/13 16:36:22;;;;;;;;;;;;;;;;;;6135420;23;19917;-84
2023/04/13 16:38:48;;;;;;;;;;;;;;;;;;6135385;23;19987;-84
2023/04/13 16:41:15;;;;;;;;;;;;;;;;;;6135689;23;20270;-86
2023/04/13 16:43:41;;;;;;;;;;;;;;;;;;6134877;23;20247;-84
2023/04/13 16:46:07;;;;;;;;;;;;;;;;;;6134918;23;19960;-83
2023/04/13 16:48:33;;;;;;;;;;;;;;;;;;6134366;23;19916;-82